createdAt,value
2017-07-19T00:00:14.364Z,53.60
2017-07-19T00:02:41.871Z,53.70
2017-07-19T00:05:09.806Z,53.70
2017-07-19T00:07:37.302Z,53.80
2017-07-19T00:10:04.807Z,53.70
2017-07-19T00:12:32.327Z,53.80
2017-07-19T00:14:59.823Z,53.80
2017-07-19T00:17:27.338Z,52.90
2017-07-19T00:19:54.832Z,51.80
2017-07-19T00:22:22.743Z,51.60
2017-07-19T00:24:51.014Z,52.20
2017-07-19T00:27:19.296Z,52.00
2017-07-19T00:29:47.563Z,52.40
2017-07-19T00:32:15.490Z,51.50
2017-07-19T00:34:43.752Z,52.30
2017-07-19T00:37:11.643Z,53.00
2017-07-19T00:39:39.557Z,53.40
2017-07-19T00:42:07.823Z,53.90
2017-07-19T00:44:35.340Z,54.50
2017-07-19T00:47:02.841Z,54.90
2017-07-19T00:49:30.355Z,55.10
2017-07-19T00:51:57.860Z,55.00
2017-07-19T00:54:25.379Z,53.50
2017-07-19T00:56:53.280Z,53.70
2017-07-19T00:59:20.803Z,53.60
2017-07-19T01:01:49.436Z,53.50
2017-07-19T01:04:17.356Z,52.80
2017-07-19T01:06:44.879Z,52.50
2017-07-19T01:09:12.375Z,52.30
2017-07-19T01:11:39.907Z,52.10
2017-07-19T01:14:07.410Z,52.30
2017-07-19T01:16:34.923Z,52.80
2017-07-19T01:19:03.191Z,53.70
2017-07-19T01:21:31.475Z,53.80
2017-07-19T01:23:59.743Z,53.20
2017-07-19T01:26:28.028Z,53.60
2017-07-19T01:28:55.544Z,53.20
2017-07-19T01:31:23.057Z,53.00
2017-07-19T01:33:50.563Z,53.10
2017-07-19T01:36:19.216Z,53.00
2017-07-19T01:38:46.715Z,53.10
2017-07-19T01:41:15.353Z,53.10
2017-07-19T01:43:44.014Z,53.30
2017-07-19T01:46:11.515Z,53.40
2017-07-19T01:48:39.036Z,53.30
2017-07-19T01:51:06.556Z,53.60
2017-07-19T01:53:34.083Z,53.50
2017-07-19T01:56:01.583Z,53.40
2017-07-19T01:58:29.139Z,53.50
2017-07-19T02:00:56.643Z,53.60
2017-07-19T02:03:24.561Z,53.70
2017-07-19T02:05:52.067Z,53.50
2017-07-19T02:08:19.960Z,52.80
2017-07-19T02:10:47.483Z,52.70
2017-07-19T02:13:14.976Z,52.50
2017-07-19T02:15:42.499Z,52.20
2017-07-19T02:18:09.995Z,52.50
2017-07-19T02:20:37.528Z,52.80
2017-07-19T02:23:05.038Z,53.30
2017-07-19T02:25:32.586Z,53.70
2017-07-19T02:28:00.079Z,53.90
2017-07-19T02:30:27.662Z,53.80
2017-07-19T02:32:55.183Z,53.60
2017-07-19T02:35:22.680Z,53.70
2017-07-19T02:37:51.331Z,53.70
2017-07-19T02:40:18.818Z,53.90
2017-07-19T02:42:46.729Z,53.90
2017-07-19T02:45:14.240Z,54.00
2017-07-19T02:47:41.763Z,53.90
2017-07-19T02:50:10.054Z,53.60
2017-07-19T02:52:38.331Z,53.40
2017-07-19T02:55:06.326Z,53.60
2017-07-19T02:57:33.859Z,53.60
2017-07-19T03:00:01.355Z,53.80
2017-07-19T03:02:28.855Z,53.70
2017-07-19T03:04:56.371Z,53.70
2017-07-19T03:07:23.871Z,53.90
2017-07-19T03:09:52.523Z,53.90
2017-07-19T03:12:20.415Z,53.90
2017-07-19T03:14:48.691Z,54.00
2017-07-19T03:17:16.959Z,54.50
2017-07-19T03:19:44.871Z,54.20
2017-07-19T03:22:12.363Z,54.00
2017-07-19T03:24:41.413Z,54.10
2017-07-19T03:27:10.044Z,54.20
2017-07-19T03:29:38.419Z,54.80
2017-07-19T03:32:05.955Z,54.40
2017-07-19T03:34:33.846Z,54.50
2017-07-19T03:37:02.125Z,55.00
2017-07-19T03:39:30.018Z,54.50
2017-07-19T03:41:57.580Z,54.40
2017-07-19T03:44:25.143Z,54.20
2017-07-19T03:46:52.661Z,54.40
2017-07-19T03:49:20.928Z,54.30
2017-07-19T03:54:17.319Z,54.90
2017-07-19T03:56:44.818Z,55.10
2017-07-19T03:59:13.948Z,55.50
2017-07-19T04:01:42.220Z,55.80
2017-07-19T04:04:10.502Z,56.20
2017-07-19T04:06:38.766Z,57.30
2017-07-19T04:09:06.282Z,57.70
2017-07-19T04:11:33.799Z,58.20
2017-07-19T04:14:01.316Z,58.40
2017-07-19T04:16:29.211Z,58.80
2017-07-19T04:18:56.731Z,59.10
2017-07-19T04:21:24.628Z,58.60
2017-07-19T04:23:52.139Z,58.30
2017-07-19T04:26:21.167Z,58.20
2017-07-19T04:28:49.795Z,58.10
2017-07-19T04:31:17.314Z,58.20
2017-07-19T04:33:44.807Z,58.20
2017-07-19T04:36:12.324Z,58.00
2017-07-19T04:38:39.984Z,57.60
2017-07-19T04:41:07.694Z,57.30
2017-07-19T04:43:35.232Z,57.20
2017-07-19T04:46:02.743Z,57.20
2017-07-19T04:48:30.239Z,57.00
2017-07-19T04:50:57.767Z,57.10
2017-07-19T04:53:25.263Z,57.10
2017-07-19T04:55:53.523Z,57.80
2017-07-19T04:58:21.431Z,56.40
2017-07-19T05:00:48.955Z,56.60
2017-07-19T05:03:16.470Z,56.20
2017-07-19T05:05:43.971Z,55.80
2017-07-19T05:13:09.241Z,55.60
2017-07-19T05:15:37.887Z,57.30
2017-07-19T05:18:06.179Z,59.10
2017-07-19T05:20:33.691Z,59.10
2017-07-19T05:23:01.587Z,59.70
2017-07-19T05:25:29.107Z,60.50
2017-07-19T05:27:56.602Z,61.10
2017-07-19T05:30:24.888Z,61.70
2017-07-19T05:32:52.391Z,61.70
2017-07-19T05:35:20.023Z,61.80
2017-07-19T05:37:47.538Z,61.90
2017-07-19T05:40:15.843Z,60.40
2017-07-19T05:42:43.345Z,60.90
2017-07-19T05:45:10.843Z,61.30
2017-07-19T05:47:38.374Z,60.90
2017-07-19T05:50:05.880Z,60.80
2017-07-19T05:52:34.167Z,60.90
2017-07-19T05:55:01.658Z,60.70
2017-07-19T05:57:30.311Z,60.70
2017-07-19T05:59:57.804Z,60.90
2017-07-19T06:02:25.347Z,60.50
2017-07-19T06:04:53.657Z,60.30
2017-07-19T06:07:21.155Z,60.10
2017-07-19T06:09:48.679Z,59.10
2017-07-19T06:12:16.940Z,58.00
2017-07-19T06:14:44.464Z,56.40
2017-07-19T06:17:12.347Z,57.10
2017-07-19T06:19:39.877Z,55.80
2017-07-19T06:22:07.402Z,55.00
2017-07-19T06:24:34.931Z,53.60
2017-07-19T06:27:02.487Z,53.10
2017-07-19T06:29:29.979Z,51.70
2017-07-19T06:31:57.547Z,50.60
2017-07-19T06:34:25.814Z,48.80
2017-07-19T06:36:53.347Z,47.50
2017-07-19T06:39:20.848Z,47.20
2017-07-19T06:41:49.127Z,46.70
2017-07-19T06:44:16.619Z,43.50
2017-07-19T06:46:44.135Z,43.50
2017-07-19T06:49:11.631Z,43.70
2017-07-19T06:51:39.154Z,43.50
2017-07-19T06:54:06.653Z,44.60
2017-07-19T06:56:34.183Z,44.10
2017-07-19T06:59:02.099Z,42.50
2017-07-19T07:01:29.592Z,41.70
2017-07-19T07:03:57.119Z,40.60
2017-07-19T07:06:25.404Z,40.30
2017-07-19T07:08:52.939Z,39.70
2017-07-19T07:11:20.852Z,39.90
2017-07-19T07:13:48.379Z,39.40
2017-07-19T07:16:15.974Z,38.80
2017-07-19T07:18:43.610Z,38.20
2017-07-19T07:21:11.507Z,37.10
2017-07-19T07:23:39.035Z,37.10
2017-07-19T07:26:06.539Z,37.40
2017-07-19T07:28:34.434Z,36.20
2017-07-19T07:31:01.955Z,36.60
2017-07-19T07:33:29.481Z,36.40
2017-07-19T07:35:57.015Z,35.90
2017-07-19T07:38:24.557Z,35.70
2017-07-19T07:40:52.087Z,34.70
2017-07-19T07:43:19.578Z,34.70
2017-07-19T07:45:47.496Z,34.20
2017-07-19T07:48:15.006Z,34.20
2017-07-19T07:50:42.533Z,33.50
2017-07-19T07:53:10.039Z,31.80
2017-07-19T07:55:37.560Z,31.90
2017-07-19T07:58:05.488Z,30.80
2017-07-19T08:00:32.979Z,30.60
2017-07-19T08:03:00.500Z,30.00
2017-07-19T08:05:28.003Z,29.20
2017-07-19T08:07:56.285Z,28.80
2017-07-19T08:10:23.807Z,29.00
2017-07-19T08:12:51.360Z,27.00
2017-07-19T08:15:19.634Z,28.00
2017-07-19T08:17:47.550Z,27.30
2017-07-19T08:20:15.042Z,26.70
2017-07-19T08:22:43.365Z,25.90
2017-07-19T08:25:10.895Z,24.80
2017-07-19T08:27:38.390Z,24.30
2017-07-19T08:30:06.312Z,24.20
2017-07-19T08:32:33.814Z,23.60
2017-07-19T08:35:02.091Z,23.40
2017-07-19T08:37:29.591Z,22.70
2017-07-19T08:39:57.500Z,23.80
2017-07-19T08:42:24.998Z,22.50
2017-07-19T08:44:52.540Z,22.40
2017-07-19T08:47:20.035Z,22.30
2017-07-19T08:49:47.526Z,22.10
2017-07-19T08:52:15.047Z,22.50
2017-07-19T08:54:42.550Z,21.40
2017-07-19T08:57:10.075Z,21.70
2017-07-19T08:59:37.570Z,21.00
2017-07-19T09:02:05.486Z,21.80
2017-07-19T09:04:32.974Z,21.10
2017-07-19T09:07:00.896Z,20.90
2017-07-19T09:09:28.886Z,21.30
2017-07-19T09:11:56.387Z,21.40
2017-07-19T09:14:24.671Z,22.20
2017-07-19T09:16:52.942Z,21.80
2017-07-19T09:19:21.227Z,21.80
2017-07-19T09:21:48.729Z,21.90
2017-07-19T09:24:17.030Z,21.80
2017-07-19T09:26:44.603Z,21.80
2017-07-19T09:29:12.890Z,21.50
2017-07-19T09:31:40.383Z,21.20
2017-07-19T09:34:07.911Z,21.40
2017-07-19T09:36:35.426Z,22.30
2017-07-19T09:39:02.933Z,21.60
2017-07-19T09:41:30.872Z,21.80
2017-07-19T09:43:58.375Z,21.80
2017-07-19T09:46:25.912Z,21.00
2017-07-19T09:48:53.811Z,22.10
2017-07-19T09:51:21.343Z,22.80
2017-07-19T09:53:48.856Z,22.90
2017-07-19T09:56:16.771Z,23.30
2017-07-19T09:58:44.308Z,23.60
2017-07-19T10:01:11.826Z,23.20
2017-07-19T10:03:40.459Z,23.60
2017-07-19T10:06:08.002Z,24.10
2017-07-19T10:08:35.519Z,24.40
2017-07-19T10:11:03.791Z,25.00
2017-07-19T10:13:31.337Z,24.10
2017-07-19T10:15:58.825Z,24.80
2017-07-19T10:18:26.347Z,25.00
2017-07-19T10:20:53.857Z,24.30
2017-07-19T10:23:21.395Z,24.00
2017-07-19T10:25:48.892Z,23.60
2017-07-19T10:28:16.403Z,24.00
2017-07-19T10:30:43.909Z,23.40
2017-07-19T10:33:11.424Z,22.90
2017-07-19T10:35:38.943Z,23.30
2017-07-19T10:38:06.474Z,23.00
2017-07-19T10:40:33.979Z,23.70
2017-07-19T10:43:02.615Z,22.90
2017-07-19T10:45:30.143Z,23.30
2017-07-19T10:47:57.650Z,23.70
2017-07-19T10:50:25.260Z,24.10
2017-07-19T10:52:52.763Z,25.10
2017-07-19T10:55:20.299Z,25.40
2017-07-19T10:57:48.939Z,26.00
2017-07-19T11:00:16.455Z,26.10
2017-07-19T11:02:45.167Z,26.30
2017-07-19T11:05:12.699Z,26.80
2017-07-19T11:07:40.203Z,27.70
2017-07-19T11:10:07.742Z,28.00
2017-07-19T11:12:35.266Z,28.30
2017-07-19T11:15:02.783Z,28.00
2017-07-19T11:17:30.297Z,28.30
2017-07-19T11:19:57.820Z,28.00
2017-07-19T11:22:25.463Z,29.60
2017-07-19T11:24:52.951Z,29.80
2017-07-19T11:27:21.228Z,29.70
2017-07-19T11:29:49.491Z,29.30
2017-07-19T11:32:17.019Z,29.10
2017-07-19T11:34:44.547Z,29.90
2017-07-19T11:37:12.071Z,29.70
2017-07-19T11:39:39.591Z,29.60
2017-07-19T11:42:07.858Z,30.50
2017-07-19T11:44:35.784Z,29.60
2017-07-19T11:47:03.679Z,29.60
2017-07-19T11:49:31.186Z,29.90
2017-07-19T11:51:58.694Z,30.50
2017-07-19T11:54:26.606Z,30.60
2017-07-19T11:56:54.127Z,31.00
2017-07-19T11:59:21.646Z,30.60
2017-07-19T12:01:49.158Z,30.20
2017-07-19T12:04:17.458Z,31.80
2017-07-19T12:06:45.736Z,31.50
2017-07-19T12:11:42.875Z,33.30
2017-07-19T12:14:10.401Z,32.30
2017-07-19T12:16:39.052Z,32.40
2017-07-19T12:19:06.555Z,32.80
2017-07-19T12:21:34.072Z,33.30
2017-07-19T12:24:01.960Z,32.10
2017-07-19T12:26:29.486Z,33.00
2017-07-19T12:28:56.988Z,32.70
2017-07-19T12:31:24.524Z,33.10
2017-07-19T12:33:52.011Z,33.30
2017-07-19T12:36:19.930Z,33.10
2017-07-19T12:38:48.188Z,32.60
2017-07-19T12:41:15.705Z,33.40
2017-07-19T12:43:43.227Z,33.60
2017-07-19T12:46:11.166Z,33.90
2017-07-19T12:48:38.663Z,32.90
2017-07-19T12:51:06.177Z,32.20
2017-07-19T12:53:34.087Z,33.80
2017-07-19T12:56:02.366Z,34.20
2017-07-19T12:58:30.643Z,33.00
2017-07-19T13:00:58.160Z,33.30
2017-07-19T13:03:25.695Z,33.00
2017-07-19T13:05:53.195Z,32.90
2017-07-19T13:08:21.495Z,32.60
2017-07-19T13:10:49.010Z,32.20
2017-07-19T13:13:16.895Z,32.90
2017-07-19T13:15:44.541Z,33.30
2017-07-19T13:20:40.920Z,32.70
2017-07-19T13:23:09.555Z,32.60
2017-07-19T13:25:37.079Z,33.70
2017-07-19T13:28:04.643Z,34.10
2017-07-19T13:30:32.164Z,32.70
2017-07-19T13:32:59.660Z,33.10
2017-07-19T13:35:27.586Z,33.80
2017-07-19T13:37:55.092Z,33.70
2017-07-19T13:40:22.601Z,33.60
2017-07-19T13:42:50.249Z,33.50
2017-07-19T13:45:18.187Z,33.40
2017-07-19T13:47:46.475Z,33.50
2017-07-19T13:50:15.124Z,33.00
2017-07-19T13:52:42.639Z,33.80
2017-07-19T13:55:10.144Z,33.70
2017-07-19T13:57:37.665Z,34.30
2017-07-19T14:00:05.175Z,34.40
2017-07-19T14:02:32.736Z,34.40
2017-07-19T14:05:00.248Z,34.10
2017-07-19T14:07:28.149Z,33.80
2017-07-19T14:09:56.525Z,34.60
2017-07-19T14:12:24.431Z,34.10
2017-07-19T14:14:52.008Z,33.80
2017-07-19T14:17:19.519Z,33.70
2017-07-19T14:19:47.035Z,34.30
2017-07-19T14:22:14.527Z,34.70
2017-07-19T14:24:42.044Z,33.80
2017-07-19T14:27:10.308Z,33.50
2017-07-19T14:29:37.843Z,33.70
2017-07-19T14:32:05.348Z,33.90
2017-07-19T14:34:34.007Z,33.80
2017-07-19T14:37:01.506Z,34.40
2017-07-19T14:39:30.155Z,33.60
2017-07-19T14:41:58.427Z,35.10
2017-07-19T14:44:26.324Z,34.50
2017-07-19T14:46:53.851Z,34.30
2017-07-19T14:49:21.352Z,33.20
2017-07-19T14:51:49.627Z,33.30
2017-07-19T14:54:17.119Z,33.50
2017-07-19T14:56:44.639Z,33.40
2017-07-19T14:59:12.143Z,33.20
2017-07-19T15:01:39.719Z,33.80
2017-07-19T15:04:07.313Z,34.10
2017-07-19T15:06:34.839Z,33.90
2017-07-19T15:09:03.482Z,34.00
2017-07-19T15:11:31.009Z,34.00
2017-07-19T15:13:58.519Z,34.10
2017-07-19T15:16:26.027Z,34.20
2017-07-19T15:18:53.540Z,34.50
2017-07-19T15:21:22.184Z,33.20
2017-07-19T15:23:49.716Z,34.00
2017-07-19T15:26:17.219Z,34.20
2017-07-19T15:28:45.157Z,34.00
2017-07-19T15:31:12.672Z,33.80
2017-07-19T15:33:40.199Z,34.40
2017-07-19T15:36:08.131Z,33.40
2017-07-19T15:41:04.505Z,34.00
2017-07-19T15:43:32.791Z,34.30
2017-07-19T15:46:00.288Z,33.90
2017-07-19T15:48:27.835Z,34.00
2017-07-19T15:50:55.734Z,33.30
2017-07-19T15:53:23.254Z,32.80
2017-07-19T15:55:50.775Z,32.40
2017-07-19T15:58:18.275Z,31.70
2017-07-19T16:00:45.820Z,31.70
2017-07-19T16:03:13.335Z,31.70
2017-07-19T16:05:40.862Z,32.30
2017-07-19T16:08:09.492Z,32.00
2017-07-19T16:10:37.012Z,32.00
2017-07-19T16:13:05.291Z,33.10
2017-07-19T16:15:33.587Z,33.10
2017-07-19T16:18:01.100Z,33.30
2017-07-19T16:20:28.627Z,33.10
2017-07-19T16:22:56.891Z,33.20
2017-07-19T16:25:24.800Z,33.10
2017-07-19T16:27:52.715Z,33.20
2017-07-19T16:30:20.223Z,33.50
2017-07-19T16:32:47.751Z,33.30
2017-07-19T16:35:15.273Z,33.70
2017-07-19T16:37:42.798Z,33.10
2017-07-19T16:40:10.304Z,32.70
2017-07-19T16:42:37.848Z,32.50
2017-07-19T16:45:06.131Z,31.90
2017-07-19T16:47:34.039Z,31.40
2017-07-19T16:50:01.927Z,32.00
2017-07-19T16:52:29.460Z,31.30
2017-07-19T16:54:56.960Z,30.60
2017-07-19T16:57:24.471Z,30.00
2017-07-19T16:59:52.387Z,30.60
2017-07-19T17:02:19.898Z,30.90
2017-07-19T17:04:47.807Z,31.40
2017-07-19T17:07:15.304Z,32.20
2017-07-19T17:09:42.823Z,32.70
2017-07-19T17:12:11.468Z,32.50
2017-07-19T17:14:38.995Z,32.20
2017-07-19T17:19:35.366Z,32.90
2017-07-19T17:22:02.865Z,33.30
2017-07-19T17:24:30.363Z,33.40
2017-07-19T17:26:57.882Z,33.10
2017-07-19T17:29:25.386Z,33.20
2017-07-19T17:31:52.911Z,33.20
2017-07-19T17:34:20.807Z,33.60
2017-07-19T17:36:48.324Z,33.30
2017-07-19T17:39:15.831Z,34.20
2017-07-19T17:41:43.419Z,34.40
2017-07-19T17:44:11.106Z,33.70
2017-07-19T17:46:38.635Z,33.50
2017-07-19T17:49:06.911Z,33.60
2017-07-19T17:51:34.448Z,33.70
2017-07-19T17:54:01.946Z,34.70
2017-07-19T17:56:30.587Z,35.30
2017-07-19T17:58:58.142Z,35.20
2017-07-19T18:03:54.523Z,35.50
2017-07-19T18:06:24.261Z,35.90
2017-07-19T18:08:51.790Z,36.30
2017-07-19T18:11:19.285Z,36.50
2017-07-19T18:13:46.807Z,36.90
2017-07-19T18:18:43.167Z,37.60
2017-07-19T18:21:10.662Z,37.50
2017-07-19T18:23:38.180Z,37.90
2017-07-19T18:26:05.679Z,38.20
2017-07-19T18:28:33.199Z,38.60
2017-07-19T18:31:00.719Z,39.00
2017-07-19T18:33:28.214Z,39.70
2017-07-19T18:35:55.747Z,39.80
2017-07-19T18:38:23.274Z,40.30
2017-07-19T18:40:51.308Z,40.30
2017-07-19T18:43:18.804Z,40.40
2017-07-19T18:45:47.827Z,40.40
2017-07-19T18:48:15.355Z,40.90
2017-07-19T18:50:42.891Z,41.40
2017-07-19T18:53:10.776Z,41.30
2017-07-19T18:55:38.317Z,41.40
2017-07-19T18:58:05.904Z,41.30
2017-07-19T19:00:34.207Z,40.60
2017-07-19T19:03:01.711Z,40.40
2017-07-19T19:05:29.204Z,39.10
2017-07-19T19:07:56.801Z,38.80
2017-07-19T19:10:24.442Z,39.60
2017-07-19T19:12:51.999Z,39.90
2017-07-19T19:15:19.495Z,39.90
2017-07-19T19:17:47.409Z,40.20
2017-07-19T19:20:14.919Z,40.90
2017-07-19T19:22:42.449Z,41.70
2017-07-19T19:25:09.946Z,42.10
2017-07-19T19:27:37.463Z,41.80
2017-07-19T19:30:05.302Z,42.10
2017-07-19T19:32:33.579Z,42.70
2017-07-19T19:35:01.075Z,43.00
2017-07-19T19:37:28.623Z,43.00
2017-07-19T19:39:56.524Z,43.40
2017-07-19T19:42:24.020Z,44.00
2017-07-19T19:44:51.540Z,44.00
2017-07-19T19:47:19.050Z,44.00
2017-07-19T19:49:46.564Z,44.40
2017-07-19T19:52:14.062Z,44.20
2017-07-19T19:54:41.583Z,43.00
2017-07-19T19:57:09.494Z,43.50
2017-07-19T19:59:37.027Z,43.60
2017-07-19T20:02:04.614Z,44.60
2017-07-19T20:04:32.127Z,45.00
2017-07-19T20:06:59.632Z,45.30
2017-07-19T20:09:27.534Z,45.60
2017-07-19T20:11:55.056Z,45.90
2017-07-19T20:14:22.955Z,46.00
2017-07-19T20:16:51.262Z,45.70
2017-07-19T20:19:19.154Z,45.90
2017-07-19T20:21:47.451Z,46.70
2017-07-19T20:24:15.342Z,46.40
2017-07-19T20:26:42.863Z,46.30
2017-07-19T20:29:10.367Z,46.60
2017-07-19T20:31:37.899Z,47.00
2017-07-19T20:34:05.443Z,46.80
2017-07-19T20:36:32.966Z,47.10
2017-07-19T20:39:01.244Z,47.90
2017-07-19T20:41:28.819Z,47.50
2017-07-19T20:43:56.746Z,47.70
2017-07-19T20:48:53.619Z,47.50
2017-07-19T20:51:21.127Z,47.50
2017-07-19T20:53:48.668Z,47.80
2017-07-19T20:56:16.168Z,48.10
2017-07-19T20:58:44.297Z,48.20
2017-07-19T21:01:11.794Z,48.40
2017-07-19T21:03:39.318Z,48.50
2017-07-19T21:06:06.894Z,48.60
2017-07-19T21:08:34.834Z,48.50
2017-07-19T21:11:02.675Z,48.10
2017-07-19T21:13:30.622Z,47.50
2017-07-19T21:15:58.185Z,47.20
2017-07-19T21:18:25.737Z,46.50
2017-07-19T21:20:53.307Z,46.20
2017-07-19T21:23:20.849Z,46.40
2017-07-19T21:25:48.439Z,46.20
2017-07-19T21:28:15.985Z,46.00
2017-07-19T21:30:43.951Z,46.10
2017-07-19T21:33:11.496Z,46.10
2017-07-19T21:35:39.425Z,45.80
2017-07-19T21:38:07.741Z,46.80
2017-07-19T21:40:36.306Z,45.80
2017-07-19T21:43:04.131Z,45.50
2017-07-19T21:45:33.190Z,46.00
2017-07-19T21:48:00.764Z,45.50
2017-07-19T21:50:28.714Z,45.30
2017-07-19T21:52:57.050Z,45.40
2017-07-19T21:55:24.985Z,45.30
2017-07-19T21:57:52.549Z,45.10
2017-07-19T22:00:20.109Z,45.40
2017-07-19T22:02:47.685Z,45.30
2017-07-19T22:05:15.227Z,45.20
2017-07-19T22:07:43.578Z,45.70
2017-07-19T22:10:12.289Z,45.10
2017-07-19T22:12:39.825Z,44.80
2017-07-19T22:15:07.775Z,44.80
2017-07-19T22:17:35.309Z,44.70
2017-07-19T22:20:02.875Z,45.00
2017-07-19T22:22:30.817Z,44.90
2017-07-19T22:24:58.373Z,44.80
2017-07-19T22:27:26.677Z,44.90
2017-07-19T22:29:54.279Z,44.80
2017-07-19T22:32:23.333Z,45.00
2017-07-19T22:34:52.376Z,45.00
2017-07-19T22:37:19.937Z,45.10
2017-07-19T22:39:47.610Z,45.40
2017-07-19T22:42:15.939Z,45.50
2017-07-19T22:44:43.479Z,45.70
2017-07-19T22:47:11.041Z,45.40
2017-07-19T22:49:38.592Z,44.70
2017-07-19T22:52:06.364Z,44.70
2017-07-19T22:54:33.909Z,44.00
2017-07-19T22:57:01.505Z,43.40
2017-07-19T22:59:29.049Z,43.40
2017-07-19T23:01:56.993Z,43.30
2017-07-19T23:04:24.954Z,43.50
2017-07-19T23:06:52.492Z,43.40
2017-07-19T23:09:20.053Z,43.40
2017-07-19T23:11:47.599Z,44.00
2017-07-19T23:14:15.160Z,43.70
2017-07-19T23:16:42.702Z,43.90
2017-07-19T23:19:10.276Z,43.90
2017-07-19T23:21:37.818Z,44.10
2017-07-19T23:24:05.381Z,44.30
2017-07-19T23:26:32.929Z,44.20
2017-07-19T23:29:00.461Z,44.70
2017-07-19T23:31:28.072Z,44.80
2017-07-19T23:33:55.609Z,45.00
2017-07-19T23:36:23.894Z,45.20
2017-07-19T23:38:51.433Z,45.40
2017-07-19T23:41:19.018Z,45.30
2017-07-19T23:43:47.130Z,45.60
2017-07-19T23:46:14.698Z,45.50
2017-07-19T23:48:42.244Z,45.80
2017-07-19T23:51:09.801Z,46.20
2017-07-19T23:53:37.360Z,46.20
2017-07-19T23:56:04.905Z,46.10
2017-07-19T23:58:32.462Z,46.10
